createdAt,value
2023-10-17T00:09:58.598Z,992.8
2023-10-17T00:15:18.009Z,992.8
2023-10-17T00:25:57.489Z,992.7
2023-10-17T00:31:18.230Z,992.6
2023-10-17T00:36:36.679Z,992.6
2023-10-17T00:41:56.639Z,992.5
2023-10-17T00:47:15.923Z,992.4
2023-10-17T00:52:35.273Z,992.3
2023-10-17T00:57:54.028Z,992.3
2023-10-17T01:08:33.175Z,992.3
2023-10-17T01:13:52.225Z,992.3
2023-10-17T01:19:11.496Z,992.3
2023-10-17T01:24:30.609Z,992.2
2023-10-17T01:35:09.158Z,992.2
2023-10-17T01:40:29.025Z,992.2
2023-10-17T01:51:06.656Z,992.2
2023-10-17T01:56:25.999Z,992.2
2023-10-17T02:01:45.579Z,992.2
2023-10-17T02:07:04.620Z,992.3
2023-10-17T02:12:23.590Z,992.3
2023-10-17T02:17:42.586Z,992.3
2023-10-17T02:23:01.751Z,992.3
2023-10-17T02:33:39.955Z,992.2
2023-10-17T02:40:13.824Z,992.2
2023-10-17T02:49:38.903Z,992.3
2023-10-17T02:54:58.425Z,992.2
2023-10-17T03:00:19.139Z,992.3
2023-10-17T03:05:37.536Z,992.2
2023-10-17T03:16:15.830Z,992.3
2023-10-17T03:21:33.600Z,992.3
2023-10-17T03:32:12.497Z,992.3
2023-10-17T03:37:32.031Z,992
2023-10-17T03:48:11.862Z,992.1
2023-10-17T03:58:49.919Z,992.3
2023-10-17T04:04:17.336Z,992.2
2023-10-17T04:14:47.477Z,992.1
2023-10-17T04:20:07.318Z,992
2023-10-17T04:30:45.043Z,991.9
2023-10-17T04:41:23.606Z,991.8
2023-10-17T04:46:42.760Z,991.7
2023-10-17T04:57:21.397Z,991.7
2023-10-17T05:02:40.755Z,991.7
2023-10-17T05:13:19.290Z,991.6
2023-10-17T05:23:58.042Z,991.6
2023-10-17T05:29:16.863Z,991.6
2023-10-17T05:39:54.913Z,991.8
2023-10-17T05:45:13.927Z,991.9
2023-10-17T05:55:52.493Z,992
2023-10-17T06:06:32.746Z,992.1
2023-10-17T06:17:10.116Z,992.2
2023-10-17T06:22:29.523Z,992.2
2023-10-17T06:33:08.343Z,992.3
2023-10-17T06:49:06.201Z,992.2
2023-10-17T06:59:45.057Z,992.2
2023-10-17T07:05:04.153Z,992.3
2023-10-17T07:15:42.424Z,992.2
2023-10-17T07:26:20.247Z,992.1
2023-10-17T07:31:39.820Z,992.1
2023-10-17T07:42:18.969Z,992
2023-10-17T07:47:38.365Z,991.9
2023-10-17T07:58:16.949Z,991.9
2023-10-17T08:03:36.504Z,991.9
2023-10-17T08:08:55.650Z,991.9
2023-10-17T08:14:14.738Z,991.9
2023-10-17T08:24:52.970Z,991.8
2023-10-17T08:30:11.638Z,991.7
2023-10-17T08:40:50.759Z,991.6
2023-10-17T08:56:49.396Z,991.7
2023-10-17T09:07:28.129Z,991.5
2023-10-17T09:12:47.408Z,991.5
2023-10-17T09:23:25.869Z,991.5
2023-10-17T09:28:45.424Z,991.5
2023-10-17T09:39:35.693Z,991.6
2023-10-17T09:50:02.287Z,991.5
2023-10-17T09:55:21.280Z,991.5
2023-10-17T10:06:00.124Z,991.6
2023-10-17T10:11:19.593Z,991.6
2023-10-17T10:21:57.823Z,991.3
2023-10-17T10:27:16.814Z,991.4
2023-10-17T10:37:54.902Z,991.3
2023-10-17T10:48:33.686Z,991.3
2023-10-17T10:53:53.324Z,991.2
2023-10-17T11:04:31.980Z,991.2
2023-10-17T11:09:51.406Z,991.1
2023-10-17T11:20:30.555Z,991.1
2023-10-17T11:31:07.964Z,990.9
2023-10-17T11:36:27.428Z,990.7
2023-10-17T11:47:05.965Z,990.6
2023-10-17T11:52:24.649Z,990.4
2023-10-17T12:03:27.644Z,990.2
2023-10-17T12:08:46.562Z,990.2
2023-10-17T12:19:24.994Z,990.1
2023-10-17T12:24:44.800Z,990.1
2023-10-17T12:35:23.476Z,990.1
2023-10-17T12:46:01.584Z,990
2023-10-17T12:56:40.680Z,989.8
2023-10-17T13:01:59.571Z,989.8
2023-10-17T13:12:38.420Z,989.9
2023-10-17T13:17:58.130Z,989.9
2023-10-17T13:23:17.079Z,989.9
2023-10-17T13:28:35.890Z,989.8
2023-10-17T13:39:14.982Z,989.8
2023-10-17T13:44:34.633Z,989.8
2023-10-17T13:55:13.033Z,989.9
2023-10-17T14:05:51.446Z,989.8
2023-10-17T14:11:10.301Z,989.7
2023-10-17T14:21:48.576Z,989.5
2023-10-17T14:27:07.690Z,989.6
2023-10-17T14:37:46.606Z,989.4
2023-10-17T14:43:05.504Z,989.3
2023-10-17T14:53:50.202Z,989.3
2023-10-17T15:04:21.861Z,989.3
2023-10-17T15:09:41.499Z,989.4
2023-10-17T15:20:19.619Z,989.5
2023-10-17T15:25:38.912Z,989.5
2023-10-17T15:36:17.762Z,989.4
2023-10-17T15:52:15.759Z,989.4
2023-10-17T16:02:54.779Z,989.4
2023-10-17T16:08:14.477Z,989.4
2023-10-17T16:18:53.030Z,989.4
2023-10-17T16:24:11.950Z,989.4
2023-10-17T16:34:51.022Z,989.4
2023-10-17T16:45:29.972Z,989.4
2023-10-17T16:50:49.080Z,989.4
2023-10-17T17:01:27.557Z,989.7
2023-10-17T17:06:46.476Z,989.6
2023-10-17T17:17:24.287Z,989.7
2023-10-17T17:28:03.189Z,989.6
2023-10-17T17:33:21.987Z,989.5
2023-10-17T17:44:00.911Z,989.6
2023-10-17T17:49:20.301Z,989.6
2023-10-17T17:59:59.634Z,989.7
2023-10-17T18:10:37.491Z,989.6
2023-10-17T18:15:56.539Z,989.6
2023-10-17T18:26:36.421Z,989.5
2023-10-17T18:31:53.833Z,989.5
2023-10-17T18:42:31.927Z,989.6
2023-10-17T18:58:29.880Z,989.5
2023-10-17T19:09:09.093Z,989.3
2023-10-17T19:14:27.854Z,989.4
2023-10-17T19:25:06.207Z,989.4
2023-10-17T19:35:44.974Z,989.5
2023-10-17T19:46:23.966Z,989.5
2023-10-17T19:51:43.436Z,989.5
2023-10-17T20:02:22.344Z,989.4
2023-10-17T20:07:41.617Z,989.4
2023-10-17T20:13:01.305Z,989.4
2023-10-17T20:18:21.048Z,989.2
2023-10-17T20:28:59.712Z,989.2
2023-10-17T20:34:19.337Z,989.2
2023-10-17T20:44:58.776Z,989.2
2023-10-17T20:50:18.230Z,989.2
2023-10-17T20:55:37.282Z,989.2
2023-10-17T21:00:56.606Z,989.1
2023-10-17T21:11:35.159Z,988.9
2023-10-17T21:16:56.674Z,988.9
2023-10-17T21:27:31.951Z,988.8
2023-10-17T21:32:51.027Z,988.8
2023-10-17T21:43:29.830Z,988.9
2023-10-17T21:54:09.117Z,988.9
2023-10-17T21:59:28.712Z,988.9
2023-10-17T22:10:08.057Z,988.6
2023-10-17T22:15:26.946Z,988.6
2023-10-17T22:20:46.668Z,988.5
2023-10-17T22:26:05.983Z,988.6
2023-10-17T22:42:03.663Z,988.6
2023-10-17T22:52:42.243Z,988.5
2023-10-17T22:58:01.887Z,988.5
2023-10-17T23:08:39.793Z,988.5
2023-10-17T23:13:58.993Z,988.4
2023-10-17T23:24:37.393Z,988.3
2023-10-17T23:35:16.383Z,988.3
2023-10-17T23:40:35.270Z,988.3
2023-10-17T23:51:13.656Z,988.2
